createdAt,value
2022-08-25T00:00:06.902Z,23.02
2022-08-25T00:03:13.690Z,22.99
2022-08-25T00:06:20.119Z,22.96
2022-08-25T00:09:28.097Z,22.94
2022-08-25T00:12:34.426Z,22.94
2022-08-25T00:15:40.723Z,22.92
2022-08-25T00:18:49.317Z,22.89
2022-08-25T00:21:55.572Z,22.86
2022-08-25T00:25:01.763Z,22.83
2022-08-25T00:28:08.658Z,22.82
2022-08-25T00:31:18.369Z,22.78
2022-08-25T00:34:29.445Z,22.74
2022-08-25T00:37:37.406Z,22.71
2022-08-25T00:40:44.386Z,22.69
2022-08-25T00:43:54.402Z,22.67
2022-08-25T00:47:03.402Z,22.64
2022-08-25T00:50:12.754Z,22.59
2022-08-25T00:53:19.208Z,22.57
2022-08-25T00:56:25.934Z,22.51
2022-08-25T00:59:32.891Z,22.46
2022-08-25T01:02:39.553Z,22.44
2022-08-25T01:05:47.405Z,22.41
2022-08-25T01:08:55.993Z,22.38
2022-08-25T01:12:02.922Z,22.38
2022-08-25T01:15:12.226Z,22.37
2022-08-25T01:18:18.957Z,22.32
2022-08-25T01:21:27.234Z,22.27
2022-08-25T01:24:39.722Z,22.24
2022-08-25T01:27:45.879Z,22.22
2022-08-25T01:30:52.859Z,22.20
2022-08-25T01:33:59.667Z,22.22
2022-08-25T01:37:06.597Z,22.23
2022-08-25T01:40:14.232Z,22.25
2022-08-25T01:43:40.181Z,22.25
2022-08-25T01:46:46.362Z,22.27
2022-08-25T01:49:52.538Z,22.26
2022-08-25T01:53:08.654Z,22.27
2022-08-25T01:56:17.206Z,22.28
2022-08-25T01:59:25.806Z,22.28
2022-08-25T02:02:32.974Z,22.29
2022-08-25T02:05:39.379Z,22.28
2022-08-25T02:08:45.554Z,22.27
2022-08-25T02:11:52.122Z,22.25
2022-08-25T02:14:58.319Z,22.22
2022-08-25T02:18:04.750Z,22.19
2022-08-25T02:21:11.505Z,22.15
2022-08-25T02:24:18.295Z,22.11
2022-08-25T02:27:24.811Z,22.09
2022-08-25T02:30:31.166Z,22.08
2022-08-25T02:33:37.502Z,22.09
2022-08-25T02:36:44.383Z,22.09
2022-08-25T02:39:50.568Z,22.11
2022-08-25T02:42:57.459Z,22.11
2022-08-25T02:46:03.614Z,22.11
2022-08-25T02:49:12.450Z,22.11
2022-08-25T02:52:19.035Z,22.08
2022-08-25T02:55:25.504Z,22.08
2022-08-25T02:58:31.778Z,22.08
2022-08-25T03:01:37.883Z,22.04
2022-08-25T03:04:44.337Z,21.97
2022-08-25T03:07:50.474Z,21.93
2022-08-25T03:11:00.169Z,21.92
2022-08-25T03:14:06.664Z,21.93
2022-08-25T03:17:12.927Z,21.93
2022-08-25T03:20:19.945Z,21.90
2022-08-25T03:23:26.387Z,21.89
2022-08-25T03:26:50.503Z,21.85
2022-08-25T03:29:57.022Z,21.83
2022-08-25T03:33:03.212Z,21.84
2022-08-25T03:36:12.212Z,21.85
2022-08-25T03:39:19.863Z,21.88
2022-08-25T03:42:26.696Z,21.90
2022-08-25T03:45:32.918Z,21.92
2022-08-25T03:48:39.165Z,21.95
2022-08-25T03:51:48.138Z,21.96
2022-08-25T03:54:54.394Z,21.97
2022-08-25T03:58:00.534Z,21.98
2022-08-25T04:01:07.058Z,21.98
2022-08-25T04:04:14.849Z,21.99
2022-08-25T04:07:20.876Z,21.99
2022-08-25T04:10:27.054Z,21.96
2022-08-25T04:13:33.258Z,21.95
2022-08-25T04:16:39.506Z,21.95
2022-08-25T04:19:45.974Z,21.96
2022-08-25T04:22:52.147Z,21.95
2022-08-25T04:25:58.677Z,21.93
2022-08-25T04:29:06.815Z,21.92
2022-08-25T04:32:14.040Z,21.90
2022-08-25T04:35:21.397Z,21.89
2022-08-25T04:38:27.629Z,21.89
2022-08-25T04:41:35.109Z,21.88
2022-08-25T04:44:41.866Z,21.86
2022-08-25T04:47:51.713Z,21.84
2022-08-25T04:51:00.638Z,21.83
2022-08-25T04:54:10.394Z,21.83
2022-08-25T04:57:16.742Z,21.84
2022-08-25T05:00:23.049Z,21.84
2022-08-25T05:03:29.296Z,21.86
2022-08-25T05:06:35.908Z,21.88
2022-08-25T05:09:42.263Z,21.94
2022-08-25T05:12:48.492Z,21.97
2022-08-25T05:16:00.426Z,21.97
2022-08-25T05:19:07.349Z,21.96
2022-08-25T05:22:13.540Z,22.00
2022-08-25T05:25:20.359Z,22.06
2022-08-25T05:28:26.595Z,22.10
2022-08-25T05:31:33.301Z,22.12
2022-08-25T05:34:40.319Z,22.16
2022-08-25T05:37:47.028Z,22.23
2022-08-25T05:40:58.025Z,22.31
2022-08-25T05:44:04.217Z,22.39
2022-08-25T05:47:10.482Z,22.45
2022-08-25T05:50:16.627Z,22.49
2022-08-25T05:53:23.151Z,22.55
2022-08-25T05:56:29.270Z,22.58
2022-08-25T05:59:35.643Z,22.60
2022-08-25T06:02:43.945Z,22.59
2022-08-25T06:05:50.458Z,22.59
2022-08-25T06:08:56.574Z,22.62
2022-08-25T06:12:02.966Z,22.67
2022-08-25T06:15:11.571Z,22.72
2022-08-25T06:18:17.683Z,22.81
2022-08-25T06:21:23.826Z,22.89
2022-08-25T06:24:31.016Z,22.98
2022-08-25T06:27:37.708Z,23.10
2022-08-25T06:30:43.890Z,23.22
2022-08-25T06:33:50.766Z,23.32
2022-08-25T06:36:56.927Z,23.40
2022-08-25T06:40:03.754Z,23.47
2022-08-25T06:43:09.942Z,23.51
2022-08-25T06:46:19.264Z,23.58
2022-08-25T06:49:30.095Z,23.70
2022-08-25T06:52:39.598Z,23.90
2022-08-25T06:55:45.590Z,24.10
2022-08-25T06:58:52.048Z,24.28
2022-08-25T07:01:58.367Z,24.50
2022-08-25T07:05:06.446Z,24.75
2022-08-25T07:08:14.495Z,25.00
2022-08-25T07:11:21.511Z,25.26
2022-08-25T07:14:27.697Z,25.50
2022-08-25T07:17:33.986Z,25.73
2022-08-25T07:20:40.628Z,26.00
2022-08-25T07:23:46.806Z,26.23
2022-08-25T07:26:53.417Z,26.43
2022-08-25T07:30:00.082Z,26.58
2022-08-25T07:33:07.656Z,26.73
2022-08-25T07:36:14.158Z,26.93
2022-08-25T07:39:23.080Z,27.11
2022-08-25T07:42:29.476Z,27.32
2022-08-25T07:45:37.693Z,27.51
2022-08-25T07:48:55.551Z,27.72
2022-08-25T07:52:03.700Z,27.92
2022-08-25T07:55:12.750Z,28.08
2022-08-25T07:58:24.279Z,27.81
2022-08-25T08:01:30.438Z,27.64
2022-08-25T08:04:38.965Z,27.98
2022-08-25T08:07:47.563Z,28.34
2022-08-25T08:11:04.218Z,28.61
2022-08-25T08:14:13.463Z,28.67
2022-08-25T08:17:25.774Z,28.38
2022-08-25T08:20:42.552Z,28.12
2022-08-25T08:23:50.250Z,27.85
2022-08-25T08:26:59.089Z,27.69
2022-08-25T08:30:07.003Z,27.99
2022-08-25T08:33:13.284Z,28.26
2022-08-25T08:36:20.572Z,28.28
2022-08-25T08:39:27.330Z,28.00
2022-08-25T08:42:47.179Z,27.88
2022-08-25T08:45:54.347Z,28.31
2022-08-25T08:49:07.551Z,28.65
2022-08-25T08:52:18.821Z,28.79
2022-08-25T08:55:32.727Z,28.93
2022-08-25T08:58:50.115Z,28.96
2022-08-25T09:02:00.498Z,28.58
2022-08-25T09:05:12.347Z,28.23
2022-08-25T09:08:20.397Z,27.98
2022-08-25T09:11:34.088Z,28.02
2022-08-25T09:14:58.886Z,28.33
2022-08-25T09:18:14.467Z,28.62
2022-08-25T09:21:32.327Z,28.86
2022-08-25T09:24:55.982Z,28.99
2022-08-25T09:28:08.487Z,28.73
2022-08-25T09:31:26.355Z,28.44
2022-08-25T09:34:36.883Z,28.22
2022-08-25T09:37:43.100Z,28.13
2022-08-25T09:40:51.838Z,28.08
2022-08-25T09:43:58.120Z,28.19
2022-08-25T09:47:08.207Z,28.70
2022-08-25T09:50:20.893Z,29.18
2022-08-25T09:53:28.181Z,29.56
2022-08-25T09:56:52.232Z,29.61
2022-08-25T09:59:58.680Z,29.37
2022-08-25T10:03:09.341Z,29.16
2022-08-25T10:06:18.714Z,29.00
2022-08-25T10:09:33.226Z,28.93
2022-08-25T10:12:43.365Z,28.92
2022-08-25T10:15:49.633Z,28.91
2022-08-25T10:19:10.107Z,28.95
2022-08-25T10:22:32.029Z,28.96
2022-08-25T10:25:40.409Z,28.92
2022-08-25T10:28:54.873Z,28.89
2022-08-25T10:32:10.184Z,28.92
2022-08-25T10:35:21.721Z,29.00
2022-08-25T10:38:38.927Z,29.10
2022-08-25T10:41:59.671Z,29.21
2022-08-25T10:45:44.863Z,29.33
2022-08-25T10:49:04.254Z,29.42
2022-08-25T10:52:18.217Z,29.42
2022-08-25T10:55:33.382Z,29.43
2022-08-25T10:59:07.675Z,29.53
2022-08-25T11:02:51.017Z,29.65
2022-08-25T11:06:01.706Z,29.70
2022-08-25T11:09:10.619Z,29.73
2022-08-25T11:12:23.425Z,29.76
2022-08-25T11:15:34.515Z,29.79
2022-08-25T11:18:47.874Z,29.81
2022-08-25T11:22:01.194Z,29.87
2022-08-25T11:25:18.861Z,29.92
2022-08-25T11:28:37.414Z,29.87
2022-08-25T11:31:52.182Z,29.84
2022-08-25T11:35:03.758Z,29.79
2022-08-25T11:38:24.327Z,29.83
2022-08-25T11:41:41.187Z,29.88
2022-08-25T11:45:01.774Z,29.92
2022-08-25T11:48:23.506Z,30.00
2022-08-25T11:51:36.719Z,30.06
2022-08-25T11:54:46.814Z,30.16
2022-08-25T11:57:55.135Z,30.26
2022-08-25T12:01:02.817Z,30.30
2022-08-25T12:04:17.499Z,30.33
2022-08-25T12:07:29.636Z,30.42
2022-08-25T12:10:59.833Z,30.52
2022-08-25T12:14:37.709Z,30.50
2022-08-25T12:17:44.483Z,30.48
2022-08-25T12:25:03.624Z,30.48
2022-08-25T12:28:34.967Z,30.49
2022-08-25T12:32:09.367Z,30.47
2022-08-25T12:35:29.558Z,30.47
2022-08-25T12:38:43.580Z,30.51
2022-08-25T12:45:35.578Z,30.50
2022-08-25T12:49:00.551Z,30.44
2022-08-25T12:52:12.889Z,30.43
2022-08-25T12:55:22.443Z,30.47
2022-08-25T12:58:56.582Z,30.49
2022-08-25T13:02:23.639Z,30.49
2022-08-25T13:05:57.133Z,30.45
2022-08-25T13:09:41.520Z,30.44
2022-08-25T13:12:52.329Z,30.40
2022-08-25T13:16:09.078Z,30.37
2022-08-25T13:19:22.098Z,30.37
2022-08-25T13:22:29.485Z,30.35
2022-08-25T13:25:40.291Z,30.32
2022-08-25T13:28:52.057Z,30.29
2022-08-25T13:32:01.064Z,30.23
2022-08-25T13:35:19.787Z,30.19
2022-08-25T13:38:28.377Z,30.17
2022-08-25T13:41:36.111Z,30.18
2022-08-25T13:44:51.670Z,30.15
2022-08-25T13:47:58.850Z,30.15
2022-08-25T13:51:22.695Z,30.13
2022-08-25T13:54:32.255Z,30.11
2022-08-25T13:57:43.774Z,30.09
2022-08-25T14:01:02.159Z,30.05
2022-08-25T14:04:31.533Z,30.04
2022-08-25T14:07:37.625Z,30.04
2022-08-25T14:10:46.664Z,30.06
2022-08-25T14:14:03.387Z,30.06
2022-08-25T14:17:28.771Z,30.07
2022-08-25T14:20:45.379Z,30.06
2022-08-25T14:23:53.273Z,30.06
2022-08-25T14:26:59.379Z,30.03
2022-08-25T14:30:07.613Z,29.98
2022-08-25T14:33:14.612Z,29.93
2022-08-25T14:36:21.113Z,29.90
2022-08-25T14:39:27.315Z,29.87
2022-08-25T14:42:34.004Z,29.85
2022-08-25T14:45:42.206Z,29.84
2022-08-25T14:48:52.230Z,29.82
2022-08-25T14:52:02.575Z,29.80
2022-08-25T14:55:10.608Z,29.75
2022-08-25T14:58:18.684Z,29.68
2022-08-25T15:01:32.909Z,29.62
2022-08-25T15:04:40.195Z,29.58
2022-08-25T15:08:14.173Z,29.54
2022-08-25T15:11:20.796Z,29.52
2022-08-25T15:14:28.956Z,29.51
2022-08-25T15:17:40.661Z,29.50
2022-08-25T15:20:51.250Z,29.49
2022-08-25T15:23:57.429Z,29.46
2022-08-25T15:27:10.000Z,29.44
2022-08-25T15:30:17.882Z,29.40
2022-08-25T15:33:24.874Z,29.38
2022-08-25T15:36:31.222Z,29.35
2022-08-25T15:39:37.579Z,29.31
2022-08-25T15:42:46.064Z,29.27
2022-08-25T15:45:52.952Z,29.23
2022-08-25T15:48:59.907Z,29.18
2022-08-25T15:52:06.742Z,29.14
2022-08-25T15:55:14.429Z,29.09
2022-08-25T15:58:21.027Z,29.03
2022-08-25T16:01:30.633Z,28.96
2022-08-25T16:04:36.950Z,28.89
2022-08-25T16:07:43.258Z,28.84
2022-08-25T16:10:51.466Z,28.78
2022-08-25T16:13:58.554Z,28.72
2022-08-25T16:17:05.439Z,28.66
2022-08-25T16:20:13.955Z,28.61
2022-08-25T16:23:21.833Z,28.53
2022-08-25T16:26:28.186Z,28.46
2022-08-25T16:29:36.938Z,28.40
2022-08-25T16:32:43.760Z,28.32
2022-08-25T16:35:50.002Z,28.24
2022-08-25T16:39:01.122Z,28.24
2022-08-25T16:42:07.897Z,28.61
2022-08-25T16:45:14.657Z,28.95
2022-08-25T16:48:20.718Z,29.16
2022-08-25T16:51:29.696Z,29.31
2022-08-25T16:55:04.570Z,29.37
2022-08-25T16:58:13.691Z,29.44
2022-08-25T17:01:19.922Z,29.49
2022-08-25T17:04:31.926Z,29.53
2022-08-25T17:07:39.121Z,29.45
2022-08-25T17:10:46.088Z,29.02
2022-08-25T17:13:53.859Z,28.59
2022-08-25T17:17:01.555Z,28.24
2022-08-25T17:20:09.245Z,28.04
2022-08-25T17:23:15.902Z,28.24
2022-08-25T17:26:27.547Z,28.43
2022-08-25T17:29:35.089Z,28.51
2022-08-25T17:32:41.278Z,28.51
2022-08-25T17:35:54.075Z,28.48
2022-08-25T17:39:01.561Z,28.45
2022-08-25T17:42:10.117Z,28.41
2022-08-25T17:45:16.469Z,28.37
2022-08-25T17:48:23.222Z,28.35
2022-08-25T17:51:32.754Z,28.32
2022-08-25T17:54:40.029Z,28.30
2022-08-25T17:57:46.868Z,28.28
2022-08-25T18:00:53.095Z,28.22
2022-08-25T18:04:00.376Z,28.14
2022-08-25T18:07:06.801Z,28.07
2022-08-25T18:10:13.801Z,28.00
2022-08-25T18:13:20.336Z,27.92
2022-08-25T18:16:28.042Z,27.85
2022-08-25T18:19:34.430Z,27.79
2022-08-25T18:22:41.695Z,27.73
2022-08-25T18:25:51.759Z,27.67
2022-08-25T18:29:07.083Z,27.61
2022-08-25T18:32:13.823Z,27.53
2022-08-25T18:35:21.364Z,27.47
2022-08-25T18:38:45.443Z,27.39
2022-08-25T18:41:52.249Z,27.30
2022-08-25T18:44:58.877Z,27.22
2022-08-25T18:48:05.998Z,27.15
2022-08-25T18:51:13.319Z,27.08
2022-08-25T18:54:23.054Z,27.00
2022-08-25T18:57:30.018Z,26.89
2022-08-25T19:00:37.398Z,26.79
2022-08-25T19:03:44.438Z,26.71
2022-08-25T19:06:51.847Z,26.63
2022-08-25T19:09:58.187Z,26.57
2022-08-25T19:13:08.354Z,26.52
2022-08-25T19:16:20.433Z,26.44
2022-08-25T19:19:27.486Z,26.37
2022-08-25T19:22:41.817Z,26.30
2022-08-25T19:25:48.603Z,26.23
2022-08-25T19:28:56.031Z,26.18
2022-08-25T19:32:04.720Z,26.13
2022-08-25T19:35:13.590Z,26.09
2022-08-25T19:38:33.964Z,26.05
2022-08-25T19:41:42.278Z,25.99
2022-08-25T19:44:48.645Z,25.91
2022-08-25T19:47:56.082Z,25.82
2022-08-25T19:51:02.315Z,25.74
2022-08-25T19:54:10.238Z,25.68
2022-08-25T19:57:28.211Z,25.59
2022-08-25T20:00:43.334Z,25.52
2022-08-25T20:03:49.527Z,25.48
2022-08-25T20:06:56.313Z,25.43
2022-08-25T20:10:03.324Z,25.35
2022-08-25T20:13:10.068Z,25.24
2022-08-25T20:16:16.283Z,25.16
2022-08-25T20:19:25.438Z,25.10
2022-08-25T20:22:33.902Z,25.06
2022-08-25T20:25:40.054Z,25.04
2022-08-25T20:28:46.255Z,25.00
2022-08-25T20:31:52.462Z,24.96
2022-08-25T20:34:58.978Z,24.92
2022-08-25T20:38:05.601Z,24.88
2022-08-25T20:41:13.846Z,24.83
2022-08-25T20:44:23.229Z,24.80
2022-08-25T20:47:30.025Z,24.73
2022-08-25T20:50:38.918Z,24.66
2022-08-25T20:53:45.218Z,24.59
2022-08-25T20:56:51.355Z,24.54
2022-08-25T20:59:58.429Z,24.51
2022-08-25T21:03:05.169Z,24.47
2022-08-25T21:06:14.669Z,24.40
2022-08-25T21:09:26.621Z,24.32
2022-08-25T21:12:33.878Z,24.27
2022-08-25T21:15:42.139Z,24.24
2022-08-25T21:18:48.473Z,24.19
2022-08-25T21:21:59.971Z,24.14
2022-08-25T21:25:08.445Z,24.11
2022-08-25T21:28:15.074Z,24.06
2022-08-25T21:31:22.834Z,24.00
2022-08-25T21:34:29.585Z,23.95
2022-08-25T21:37:35.991Z,23.92
2022-08-25T21:40:45.045Z,23.88
2022-08-25T21:43:52.378Z,23.81
2022-08-25T21:46:58.802Z,23.76
2022-08-25T21:50:05.115Z,23.71
2022-08-25T21:53:11.934Z,23.67
2022-08-25T21:56:22.526Z,23.60
2022-08-25T21:59:34.940Z,23.52
2022-08-25T22:02:44.060Z,23.47
2022-08-25T22:05:50.452Z,23.42
2022-08-25T22:08:56.795Z,23.39
2022-08-25T22:12:03.002Z,23.35
2022-08-25T22:15:12.470Z,23.28
2022-08-25T22:18:19.929Z,23.20
2022-08-25T22:21:27.960Z,23.15
2022-08-25T22:24:34.294Z,23.11
2022-08-25T22:27:40.675Z,23.09
2022-08-25T22:30:46.838Z,23.07
2022-08-25T22:33:55.526Z,23.04
2022-08-25T22:37:05.654Z,23.01
2022-08-25T22:40:13.958Z,22.98
2022-08-25T22:43:21.697Z,22.95
2022-08-25T22:46:31.309Z,22.90
2022-08-25T22:49:39.117Z,22.86
2022-08-25T22:52:46.987Z,22.82
2022-08-25T22:55:53.947Z,22.78
2022-08-25T22:59:10.600Z,22.73
2022-08-25T23:02:16.782Z,22.68
2022-08-25T23:05:23.370Z,22.63
2022-08-25T23:08:40.869Z,22.58
2022-08-25T23:11:47.379Z,22.53
2022-08-25T23:14:57.618Z,22.45
2022-08-25T23:18:04.400Z,22.37
2022-08-25T23:21:28.719Z,22.33
2022-08-25T23:24:43.368Z,22.30
2022-08-25T23:27:49.857Z,22.26
2022-08-25T23:30:59.372Z,22.22
2022-08-25T23:34:06.785Z,22.18
2022-08-25T23:37:13.983Z,22.16
2022-08-25T23:40:20.277Z,22.13
2022-08-25T23:43:26.863Z,22.10
2022-08-25T23:46:35.244Z,22.06
2022-08-25T23:49:41.254Z,22.01
2022-08-25T23:52:47.376Z,21.97
2022-08-25T23:55:54.377Z,21.95
2022-08-25T23:59:01.598Z,21.91
